createdAt,value
2023-05-05T00:00:21.327Z,8.285714
2023-05-05T00:05:24.512Z,9.000000
2023-05-05T00:10:27.208Z,10.333333
2023-05-05T00:15:29.883Z,14.000000
2023-05-05T00:20:32.420Z,12.000000
2023-05-05T00:25:34.924Z,8.000000
2023-05-05T00:30:17.458Z,9.333333
2023-05-05T00:35:31.944Z,12.000000
2023-05-05T00:40:22.725Z,11.428571
2023-05-05T00:45:25.638Z,10.000000
2023-05-05T00:50:29.000Z,9.733333
2023-05-05T00:55:32.140Z,9.000000
2023-05-05T01:00:34.691Z,8.666667
2023-05-05T01:05:17.504Z,8.000000
2023-05-05T01:10:21.059Z,8.333333
2023-05-05T01:15:23.023Z,9.000000
2023-05-05T01:20:25.645Z,9.800000
2023-05-05T01:25:28.742Z,12.000000
2023-05-05T01:30:31.691Z,10.333333
2023-05-05T01:35:35.896Z,7.000000
2023-05-05T01:40:16.937Z,7.666667
2023-05-05T01:45:21.043Z,9.000000
2023-05-05T01:50:23.572Z,10.714286
2023-05-05T01:55:26.774Z,15.000000
2023-05-05T02:00:28.820Z,14.733333
2023-05-05T02:05:32.445Z,14.000000
2023-05-05T02:10:35.182Z,12.333333
2023-05-05T02:15:18.361Z,9.000000
2023-05-05T02:20:20.979Z,8.666667
2023-05-05T02:25:24.016Z,8.000000
2023-05-05T02:30:28.632Z,7.733333
2023-05-05T02:35:32.867Z,7.000000
2023-05-05T02:40:16.108Z,7.000000
2023-05-05T02:45:19.414Z,7.000000
2023-05-05T02:50:22.192Z,7.857143
2023-05-05T02:55:25.012Z,10.000000
2023-05-05T03:00:29.000Z,13.200000
2023-05-05T03:05:31.740Z,22.000000
2023-05-05T03:10:34.297Z,25.333333
2023-05-05T03:15:16.421Z,32.000000
2023-05-05T03:20:19.444Z,32.666667
2023-05-05T03:25:21.645Z,34.000000
2023-05-05T03:30:24.355Z,31.714286
2023-05-05T03:35:26.733Z,26.000000
2023-05-05T03:40:42.977Z,23.600000
2023-05-05T03:45:32.413Z,17.000000
2023-05-05T03:50:35.884Z,16.666667
2023-05-05T03:55:18.573Z,16.000000
2023-05-05T04:00:21.291Z,20.333333
2023-05-05T04:05:23.928Z,29.000000
2023-05-05T04:10:27.037Z,26.066667
2023-05-05T04:15:29.230Z,18.000000
2023-05-05T04:20:32.139Z,17.333333
2023-05-05T04:25:35.320Z,16.000000
2023-05-05T04:30:17.512Z,15.666667
2023-05-05T04:35:20.062Z,15.000000
2023-05-05T04:40:22.540Z,12.714286
2023-05-05T04:45:25.551Z,7.000000
2023-05-05T04:50:28.762Z,7.000000
2023-05-05T04:55:31.481Z,7.000000
2023-05-05T05:00:34.886Z,7.666667
2023-05-05T05:05:17.008Z,9.000000
2023-05-05T05:10:20.543Z,10.000000
2023-05-05T05:15:23.033Z,12.000000
2023-05-05T05:20:25.964Z,10.666667
2023-05-05T05:25:28.545Z,7.000000
2023-05-05T05:30:31.060Z,8.000000
2023-05-05T05:35:34.189Z,10.000000
2023-05-05T05:40:17.271Z,10.666667
2023-05-05T05:45:19.480Z,12.000000
2023-05-05T05:50:24.353Z,11.142857
2023-05-05T05:55:27.187Z,9.000000
2023-05-05T06:00:30.180Z,10.000000
2023-05-05T06:05:33.647Z,12.000000
2023-05-05T06:10:27.373Z,11.666667
2023-05-05T06:15:20.970Z,11.000000
2023-05-05T06:20:24.137Z,11.285714
2023-05-05T06:25:26.509Z,12.000000
2023-05-05T06:30:29.563Z,12.533333
2023-05-05T06:35:32.173Z,14.000000
2023-05-05T06:40:35.298Z,13.000000
2023-05-05T06:45:17.631Z,11.000000
2023-05-05T06:50:19.947Z,10.666667
2023-05-05T06:55:22.777Z,10.000000
2023-05-05T07:00:27.180Z,10.266667
2023-05-05T07:05:28.757Z,11.000000
2023-05-05T07:10:33.893Z,10.000000
2023-05-05T07:15:35.313Z,8.000000
2023-05-05T07:20:18.653Z,8.000000
2023-05-05T07:25:22.905Z,8.000000
2023-05-05T07:30:27.095Z,7.428571
2023-05-05T07:35:28.551Z,6.000000
2023-05-05T07:40:32.210Z,6.666667
2023-05-05T07:45:35.012Z,8.000000
2023-05-05T07:50:17.737Z,9.000000
2023-05-05T07:55:21.137Z,11.000000
2023-05-05T08:00:25.197Z,10.428571
2023-05-05T08:05:28.681Z,9.000000
2023-05-05T08:10:31.459Z,9.000000
2023-05-05T08:15:34.439Z,9.000000
2023-05-05T08:20:17.198Z,9.000000
2023-05-05T08:25:20.614Z,9.000000
2023-05-05T08:30:23.305Z,9.285714
2023-05-05T08:35:27.435Z,10.000000
2023-05-05T08:40:30.059Z,9.200000
2023-05-05T08:45:32.318Z,7.000000
2023-05-05T08:50:34.992Z,8.000000
2023-05-05T08:55:17.400Z,10.000000
2023-05-05T09:00:19.947Z,8.333333
2023-05-05T09:05:27.569Z,5.000000
2023-05-05T09:10:30.366Z,6.333333
2023-05-05T09:15:32.991Z,9.000000
2023-05-05T09:20:35.876Z,9.333333
2023-05-05T09:25:17.797Z,10.000000
2023-05-05T09:30:19.960Z,9.333333
2023-05-05T09:35:22.320Z,8.000000
2023-05-05T09:40:25.240Z,7.733333
2023-05-05T09:45:27.913Z,7.000000
2023-05-05T09:50:30.283Z,7.333333
2023-05-05T09:55:32.807Z,8.000000
2023-05-05T10:00:35.158Z,9.333333
2023-05-05T10:05:17.683Z,12.000000
2023-05-05T10:10:20.278Z,12.000000
2023-05-05T10:15:22.996Z,12.000000
2023-05-05T10:20:25.323Z,11.200000
2023-05-05T10:25:27.601Z,9.000000
2023-05-05T10:30:30.047Z,8.666667
2023-05-05T10:35:32.574Z,8.000000
2023-05-05T10:40:34.898Z,9.333333
2023-05-05T10:45:18.468Z,12.000000
2023-05-05T10:50:19.916Z,11.000000
2023-05-05T10:55:22.195Z,9.000000
2023-05-05T11:00:24.692Z,9.000000
2023-05-05T11:05:27.006Z,9.000000
2023-05-05T11:10:29.534Z,9.333333
2023-05-05T11:15:31.670Z,10.000000
2023-05-05T11:20:33.933Z,8.000000
2023-05-05T11:25:15.996Z,4.000000
2023-05-05T11:30:18.456Z,5.333333
2023-05-05T11:35:20.992Z,8.000000
2023-05-05T11:40:23.237Z,7.142857
2023-05-05T11:45:25.666Z,5.000000
2023-05-05T11:50:28.180Z,5.000000
2023-05-05T11:55:30.452Z,5.000000
2023-05-05T12:00:32.587Z,6.000000
2023-05-05T12:05:36.966Z,8.000000
2023-05-05T12:10:17.512Z,8.000000
2023-05-05T12:15:20.614Z,8.000000
2023-05-05T12:20:23.048Z,7.714286
2023-05-05T12:25:25.492Z,7.000000
2023-05-05T12:30:28.046Z,7.800000
2023-05-05T12:35:30.474Z,10.000000
2023-05-05T12:40:33.228Z,8.000000
2023-05-05T12:45:16.121Z,4.000000
2023-05-05T12:50:18.569Z,5.000000
2023-05-05T12:55:20.857Z,7.000000
2023-05-05T13:00:23.428Z,8.428571
2023-05-05T13:05:26.059Z,12.000000
2023-05-05T13:10:28.910Z,11.733333
2023-05-05T13:15:31.088Z,11.000000
2023-05-05T13:20:33.367Z,9.666667
2023-05-05T13:25:36.029Z,7.000000
2023-05-05T13:30:18.037Z,7.333333
2023-05-05T13:35:20.894Z,8.000000
2023-05-05T13:40:25.216Z,8.000000
2023-05-05T13:45:25.556Z,8.000000
2023-05-05T13:50:28.159Z,8.533333
2023-05-05T13:55:30.312Z,10.000000
2023-05-05T14:00:32.952Z,9.333333
2023-05-05T14:05:35.344Z,8.000000
2023-05-05T14:10:18.008Z,7.333333
2023-05-05T14:15:20.668Z,6.000000
2023-05-05T14:20:23.297Z,6.285714
2023-05-05T14:25:25.702Z,7.000000
2023-05-05T14:30:27.890Z,6.733333
2023-05-05T14:35:30.296Z,6.000000
2023-05-05T14:40:33.030Z,6.000000
2023-05-05T14:45:35.560Z,6.000000
2023-05-05T14:50:17.768Z,6.000000
2023-05-05T14:55:20.539Z,6.000000
2023-05-05T15:00:23.210Z,6.285714
2023-05-05T15:05:25.631Z,7.000000
2023-05-05T15:10:28.072Z,7.000000
2023-05-05T15:15:30.076Z,7.000000
2023-05-05T15:20:32.345Z,7.333333
2023-05-05T15:25:34.542Z,8.000000
2023-05-05T15:30:16.577Z,7.666667
2023-05-05T15:35:19.482Z,7.000000
2023-05-05T15:40:22.486Z,7.000000
2023-05-05T15:45:24.706Z,7.000000
2023-05-05T15:50:27.135Z,7.800000
2023-05-05T15:55:30.365Z,10.000000
2023-05-05T16:00:32.943Z,9.000000
2023-05-05T16:05:35.606Z,7.000000
2023-05-05T16:10:17.871Z,7.333333
2023-05-05T16:15:20.624Z,8.000000
2023-05-05T16:20:23.045Z,7.428571
2023-05-05T16:25:25.593Z,6.000000
2023-05-05T16:30:27.854Z,6.000000
2023-05-05T16:35:30.342Z,6.000000
2023-05-05T16:40:32.849Z,6.333333
2023-05-05T16:45:35.092Z,7.000000
2023-05-05T16:50:16.771Z,7.333333
2023-05-05T16:55:19.316Z,8.000000
2023-05-05T17:00:22.495Z,7.714286
2023-05-05T17:05:24.481Z,7.000000
2023-05-05T17:10:27.132Z,6.733333
2023-05-05T17:15:29.485Z,6.000000
2023-05-05T17:20:31.708Z,6.000000
2023-05-05T17:25:34.509Z,6.000000
2023-05-05T17:30:16.820Z,6.666667
2023-05-05T17:35:19.858Z,8.000000
2023-05-05T17:40:22.397Z,7.428571
2023-05-05T17:45:24.892Z,6.000000
2023-05-05T17:50:27.121Z,6.000000
2023-05-05T17:55:29.418Z,6.000000
2023-05-05T18:00:32.078Z,6.000000
2023-05-05T18:05:34.587Z,6.000000
2023-05-05T18:10:17.109Z,6.000000
2023-05-05T18:15:20.385Z,6.000000
2023-05-05T18:20:22.494Z,6.285714
2023-05-05T18:25:25.119Z,7.000000
2023-05-05T18:30:28.130Z,6.733333
2023-05-05T18:35:30.738Z,6.000000
2023-05-05T18:40:33.141Z,6.000000
2023-05-05T18:45:35.898Z,6.000000
2023-05-05T18:50:18.386Z,6.000000
2023-05-05T18:55:20.901Z,6.000000
2023-05-05T19:00:23.328Z,6.000000
2023-05-05T19:05:26.239Z,6.000000
2023-05-05T19:10:28.328Z,6.000000
2023-05-05T19:15:30.590Z,6.000000
2023-05-05T19:20:33.034Z,6.000000
2023-05-05T19:25:35.025Z,6.000000
2023-05-05T19:30:17.255Z,6.333333
2023-05-05T19:35:19.667Z,7.000000
2023-05-05T19:40:22.179Z,6.714286
2023-05-05T19:45:24.669Z,6.000000
2023-05-05T19:50:27.298Z,6.533333
2023-05-05T19:55:30.174Z,8.000000
2023-05-05T20:00:32.585Z,7.333333
2023-05-05T20:05:35.194Z,6.000000
2023-05-05T20:10:17.392Z,6.000000
2023-05-05T20:15:19.864Z,6.000000
2023-05-05T20:20:22.078Z,6.000000
2023-05-05T20:25:24.291Z,6.000000
2023-05-05T20:30:26.900Z,6.266667
2023-05-05T20:35:29.540Z,7.000000
2023-05-05T20:40:31.945Z,6.666667
2023-05-05T20:45:34.413Z,6.000000
2023-05-05T20:50:16.633Z,6.000000
2023-05-05T20:55:19.166Z,6.000000
2023-05-05T21:00:21.443Z,6.000000
2023-05-05T21:05:24.026Z,6.000000
2023-05-05T21:10:26.744Z,6.000000
2023-05-05T21:15:28.745Z,6.000000
2023-05-05T21:20:31.644Z,6.000000
2023-05-05T21:25:34.231Z,6.000000
2023-05-05T21:30:16.924Z,6.000000
2023-05-05T21:35:18.922Z,6.000000
2023-05-05T21:40:21.331Z,6.333333
2023-05-05T21:45:23.625Z,7.000000
2023-05-05T21:50:27.626Z,6.733333
2023-05-05T21:55:28.257Z,6.000000
2023-05-05T22:00:30.543Z,6.000000
2023-05-05T22:05:32.932Z,6.000000
2023-05-05T22:10:35.199Z,6.333333
2023-05-05T22:15:17.162Z,7.000000
2023-05-05T22:20:19.728Z,6.666667
2023-05-05T22:25:22.222Z,6.000000
2023-05-05T22:30:24.500Z,6.000000
2023-05-05T22:35:27.035Z,6.000000
2023-05-05T22:40:29.316Z,6.000000
2023-05-05T22:45:31.641Z,6.000000
2023-05-05T22:50:34.155Z,6.000000
2023-05-05T22:55:16.600Z,6.000000
2023-05-05T23:00:19.140Z,7.666667
2023-05-05T23:05:21.608Z,11.000000
2023-05-05T23:10:24.480Z,9.571429
2023-05-05T23:15:26.755Z,6.000000
2023-05-05T23:20:29.113Z,6.000000
2023-05-05T23:25:31.332Z,6.000000
2023-05-05T23:30:34.067Z,7.000000
2023-05-05T23:35:16.410Z,9.000000
2023-05-05T23:40:19.111Z,8.333333
2023-05-05T23:45:21.268Z,7.000000
2023-05-05T23:50:24.009Z,6.714286
2023-05-05T23:55:26.456Z,6.000000
